sensor_id;sensor_type;location;lat;lon;timestamp;P1;durP1;ratioP1;P2;durP2;ratioP2
2438;SDS011;14509;47.992;7.848;2023-04-19T00:01:47;5.40;;;4.80;;
2438;SDS011;14509;47.992;7.848;2023-04-19T00:03:49;5.15;;;4.18;;
2438;SDS011;14509;47.992;7.848;2023-04-19T00:05:51;5.50;;;5.00;;
2438;SDS011;14509;47.992;7.848;2023-04-19T00:07:53;5.10;;;4.00;;
2438;SDS011;14509;47.992;7.848;2023-04-19T00:09:56;4.60;;;2.90;;
2438;SDS011;14509;47.992;7.848;2023-04-19T00:11:57;4.77;;;3.73;;
2438;SDS011;14509;47.992;7.848;2023-04-19T00:14:00;3.70;;;3.20;;
2438;SDS011;14509;47.992;7.848;2023-04-19T00:16:04;4.30;;;3.90;;
2438;SDS011;14509;47.992;7.848;2023-04-19T00:18:08;4.27;;;3.87;;
2438;SDS011;14509;47.992;7.848;2023-04-19T00:20:10;5.00;;;3.77;;
2438;SDS011;14509;47.992;7.848;2023-04-19T00:22:13;6.07;;;4.50;;
2438;SDS011;14509;47.992;7.848;2023-04-19T00:24:16;4.40;;;3.77;;
2438;SDS011;14509;47.992;7.848;2023-04-19T00:26:18;3.90;;;3.50;;
2438;SDS011;14509;47.992;7.848;2023-04-19T00:28:25;5.20;;;4.00;;
2438;SDS011;14509;47.992;7.848;2023-04-19T00:30:27;5.50;;;3.30;;
2438;SDS011;14509;47.992;7.848;2023-04-19T00:32:31;4.73;;;3.60;;
2438;SDS011;14509;47.992;7.848;2023-04-19T00:34:34;5.57;;;3.70;;
2438;SDS011;14509;47.992;7.848;2023-04-19T00:36:36;5.17;;;4.03;;
2438;SDS011;14509;47.992;7.848;2023-04-19T00:38:40;4.50;;;4.10;;
2438;SDS011;14509;47.992;7.848;2023-04-19T00:40:43;5.53;;;4.03;;
2438;SDS011;14509;47.992;7.848;2023-04-19T00:42:46;6.43;;;3.70;;
2438;SDS011;14509;47.992;7.848;2023-04-19T00:44:48;4.90;;;4.40;;
2438;SDS011;14509;47.992;7.848;2023-04-19T00:46:50;4.37;;;3.33;;
2438;SDS011;14509;47.992;7.848;2023-04-19T00:48:52;6.30;;;4.20;;
2438;SDS011;14509;47.992;7.848;2023-04-19T00:50:55;5.90;;;3.90;;
2438;SDS011;14509;47.992;7.848;2023-04-19T00:52:57;10.07;;;3.50;;
2438;SDS011;14509;47.992;7.848;2023-04-19T00:55:00;5.10;;;4.23;;
2438;SDS011;14509;47.992;7.848;2023-04-19T00:57:02;8.73;;;3.67;;
2438;SDS011;14509;47.992;7.848;2023-04-19T00:59:04;4.53;;;3.10;;
2438;SDS011;14509;47.992;7.848;2023-04-19T01:01:07;5.63;;;4.17;;
2438;SDS011;14509;47.992;7.848;2023-04-19T01:03:09;7.47;;;3.63;;
2438;SDS011;14509;47.992;7.848;2023-04-19T01:05:12;6.50;;;3.83;;
2438;SDS011;14509;47.992;7.848;2023-04-19T01:07:16;4.90;;;3.63;;
2438;SDS011;14509;47.992;7.848;2023-04-19T01:09:19;5.23;;;3.53;;
2438;SDS011;14509;47.992;7.848;2023-04-19T01:11:21;5.53;;;3.97;;
2438;SDS011;14509;47.992;7.848;2023-04-19T01:13:23;6.30;;;4.50;;
2438;SDS011;14509;47.992;7.848;2023-04-19T01:15:27;5.23;;;3.93;;
2438;SDS011;14509;47.992;7.848;2023-04-19T01:17:30;6.20;;;4.00;;
2438;SDS011;14509;47.992;7.848;2023-04-19T01:19:33;6.10;;;3.87;;
2438;SDS011;14509;47.992;7.848;2023-04-19T01:21:35;5.60;;;3.93;;
2438;SDS011;14509;47.992;7.848;2023-04-19T01:23:40;4.30;;;3.70;;
2438;SDS011;14509;47.992;7.848;2023-04-19T01:25:42;5.07;;;4.57;;
2438;SDS011;14509;47.992;7.848;2023-04-19T01:27:43;4.40;;;4.00;;
2438;SDS011;14509;47.992;7.848;2023-04-19T01:29:45;5.63;;;4.07;;
2438;SDS011;14509;47.992;7.848;2023-04-19T01:31:47;5.67;;;4.10;;
2438;SDS011;14509;47.992;7.848;2023-04-19T01:33:52;6.37;;;4.10;;
2438;SDS011;14509;47.992;7.848;2023-04-19T01:35:54;5.30;;;4.33;;
2438;SDS011;14509;47.992;7.848;2023-04-19T01:37:56;7.03;;;4.23;;
2438;SDS011;14509;47.992;7.848;2023-04-19T01:40:00;9.00;;;5.93;;
2438;SDS011;14509;47.992;7.848;2023-04-19T01:42:02;6.97;;;4.97;;
2438;SDS011;14509;47.992;7.848;2023-04-19T01:44:04;5.93;;;4.43;;
2438;SDS011;14509;47.992;7.848;2023-04-19T01:46:06;5.67;;;4.30;;
2438;SDS011;14509;47.992;7.848;2023-04-19T01:48:11;4.73;;;4.10;;
2438;SDS011;14509;47.992;7.848;2023-04-19T01:50:13;4.77;;;3.60;;
2438;SDS011;14509;47.992;7.848;2023-04-19T01:52:15;5.00;;;4.03;;
2438;SDS011;14509;47.992;7.848;2023-04-19T01:54:17;6.43;;;4.20;;
2438;SDS011;14509;47.992;7.848;2023-04-19T01:56:21;6.03;;;4.60;;
2438;SDS011;14509;47.992;7.848;2023-04-19T01:58:22;5.00;;;4.53;;
2438;SDS011;14509;47.992;7.848;2023-04-19T02:00:24;7.20;;;5.63;;
2438;SDS011;14509;47.992;7.848;2023-04-19T02:02:26;9.17;;;5.93;;
2438;SDS011;14509;47.992;7.848;2023-04-19T02:04:28;8.80;;;5.57;;
2438;SDS011;14509;47.992;7.848;2023-04-19T02:06:32;6.70;;;5.00;;
2438;SDS011;14509;47.992;7.848;2023-04-19T02:08:37;5.03;;;4.50;;
2438;SDS011;14509;47.992;7.848;2023-04-19T02:10:39;5.30;;;4.80;;
2438;SDS011;14509;47.992;7.848;2023-04-19T02:12:42;8.50;;;6.33;;
2438;SDS011;14509;47.992;7.848;2023-04-19T02:14:44;5.47;;;4.43;;
2438;SDS011;14509;47.992;7.848;2023-04-19T02:16:47;6.00;;;4.70;;
2438;SDS011;14509;47.992;7.848;2023-04-19T02:18:49;6.30;;;4.57;;
2438;SDS011;14509;47.992;7.848;2023-04-19T02:20:52;7.10;;;5.10;;
2438;SDS011;14509;47.992;7.848;2023-04-19T02:22:54;5.73;;;5.13;;
2438;SDS011;14509;47.992;7.848;2023-04-19T02:24:56;6.80;;;5.37;;
2438;SDS011;14509;47.992;7.848;2023-04-19T02:27:03;6.63;;;4.60;;
2438;SDS011;14509;47.992;7.848;2023-04-19T02:29:07;6.37;;;5.20;;
2438;SDS011;14509;47.992;7.848;2023-04-19T02:31:11;5.37;;;4.10;;
2438;SDS011;14509;47.992;7.848;2023-04-19T02:33:13;8.43;;;5.27;;
2438;SDS011;14509;47.992;7.848;2023-04-19T02:35:16;5.10;;;4.50;;
2438;SDS011;14509;47.992;7.848;2023-04-19T02:37:18;5.27;;;3.93;;
2438;SDS011;14509;47.992;7.848;2023-04-19T02:39:20;7.57;;;4.03;;
2438;SDS011;14509;47.992;7.848;2023-04-19T02:41:21;4.33;;;3.93;;
2438;SDS011;14509;47.992;7.848;2023-04-19T02:43:23;5.77;;;4.27;;
2438;SDS011;14509;47.992;7.848;2023-04-19T02:45:27;8.20;;;4.13;;
2438;SDS011;14509;47.992;7.848;2023-04-19T02:47:29;6.90;;;4.43;;
2438;SDS011;14509;47.992;7.848;2023-04-19T02:49:30;5.80;;;4.90;;
2438;SDS011;14509;47.992;7.848;2023-04-19T02:51:35;8.57;;;3.87;;
2438;SDS011;14509;47.992;7.848;2023-04-19T02:53:37;5.87;;;4.27;;
2438;SDS011;14509;47.992;7.848;2023-04-19T02:55:40;5.20;;;3.50;;
2438;SDS011;14509;47.992;7.848;2023-04-19T02:57:48;5.50;;;4.27;;
2438;SDS011;14509;47.992;7.848;2023-04-19T02:59:50;6.37;;;4.33;;
2438;SDS011;14509;47.992;7.848;2023-04-19T03:01:54;4.37;;;4.00;;
2438;SDS011;14509;47.992;7.848;2023-04-19T03:03:57;6.83;;;4.73;;
2438;SDS011;14509;47.992;7.848;2023-04-19T03:05:59;5.13;;;4.60;;
2438;SDS011;14509;47.992;7.848;2023-04-19T03:08:03;5.00;;;4.43;;
2438;SDS011;14509;47.992;7.848;2023-04-19T03:10:06;5.13;;;3.70;;
2438;SDS011;14509;47.992;7.848;2023-04-19T03:12:09;8.10;;;4.60;;
2438;SDS011;14509;47.992;7.848;2023-04-19T03:14:11;6.00;;;4.93;;
2438;SDS011;14509;47.992;7.848;2023-04-19T03:16:13;5.60;;;4.20;;
2438;SDS011;14509;47.992;7.848;2023-04-19T03:18:18;7.90;;;4.77;;
2438;SDS011;14509;47.992;7.848;2023-04-19T03:20:20;5.27;;;4.30;;
2438;SDS011;14509;47.992;7.848;2023-04-19T03:22:23;13.70;;;5.27;;
2438;SDS011;14509;47.992;7.848;2023-04-19T03:24:26;6.10;;;4.47;;
2438;SDS011;14509;47.992;7.848;2023-04-19T03:26:30;6.30;;;4.90;;
2438;SDS011;14509;47.992;7.848;2023-04-19T03:28:32;4.73;;;3.90;;
2438;SDS011;14509;47.992;7.848;2023-04-19T03:30:51;6.10;;;4.47;;
2438;SDS011;14509;47.992;7.848;2023-04-19T03:37:27;7.10;;;4.90;;
2438;SDS011;14509;47.992;7.848;2023-04-19T03:39:30;8.70;;;6.20;;
2438;SDS011;14509;47.992;7.848;2023-04-19T03:41:36;6.90;;;4.70;;
2438;SDS011;14509;47.992;7.848;2023-04-19T03:43:49;6.87;;;6.23;;
2438;SDS011;14509;47.992;7.848;2023-04-19T03:45:51;5.53;;;5.03;;
2438;SDS011;14509;47.992;7.848;2023-04-19T03:47:53;7.30;;;5.60;;
2438;SDS011;14509;47.992;7.848;2023-04-19T03:49:55;7.83;;;6.07;;
2438;SDS011;14509;47.992;7.848;2023-04-19T03:51:57;8.20;;;5.60;;
2438;SDS011;14509;47.992;7.848;2023-04-19T03:54:02;7.60;;;5.53;;
2438;SDS011;14509;47.992;7.848;2023-04-19T03:56:04;7.10;;;5.20;;
2438;SDS011;14509;47.992;7.848;2023-04-19T03:58:07;6.03;;;5.37;;
2438;SDS011;14509;47.992;7.848;2023-04-19T04:00:17;10.00;;;5.40;;
2438;SDS011;14509;47.992;7.848;2023-04-19T04:02:26;7.47;;;5.87;;
2438;SDS011;14509;47.992;7.848;2023-04-19T04:04:28;6.80;;;5.63;;
2438;SDS011;14509;47.992;7.848;2023-04-19T04:06:30;9.30;;;6.13;;
2438;SDS011;14509;47.992;7.848;2023-04-19T04:08:32;8.80;;;6.57;;
2438;SDS011;14509;47.992;7.848;2023-04-19T04:10:35;7.20;;;5.57;;
2438;SDS011;14509;47.992;7.848;2023-04-19T04:12:37;6.50;;;5.40;;
2438;SDS011;14509;47.992;7.848;2023-04-19T04:14:41;6.87;;;6.20;;
2438;SDS011;14509;47.992;7.848;2023-04-19T04:16:45;6.77;;;5.30;;
2438;SDS011;14509;47.992;7.848;2023-04-19T04:18:49;6.60;;;5.23;;
2438;SDS011;14509;47.992;7.848;2023-04-19T04:20:51;6.00;;;5.13;;
2438;SDS011;14509;47.992;7.848;2023-04-19T04:22:53;6.10;;;5.30;;
2438;SDS011;14509;47.992;7.848;2023-04-19T04:24:56;9.37;;;6.13;;
2438;SDS011;14509;47.992;7.848;2023-04-19T04:27:05;7.50;;;5.90;;
2438;SDS011;14509;47.992;7.848;2023-04-19T04:29:14;9.73;;;6.03;;
2438;SDS011;14509;47.992;7.848;2023-04-19T04:31:16;8.13;;;5.70;;
2438;SDS011;14509;47.992;7.848;2023-04-19T04:33:19;7.33;;;5.90;;
2438;SDS011;14509;47.992;7.848;2023-04-19T04:35:21;6.00;;;5.10;;
2438;SDS011;14509;47.992;7.848;2023-04-19T04:37:30;5.67;;;5.00;;
2438;SDS011;14509;47.992;7.848;2023-04-19T04:39:33;7.73;;;5.40;;
2438;SDS011;14509;47.992;7.848;2023-04-19T04:41:38;7.70;;;6.00;;
2438;SDS011;14509;47.992;7.848;2023-04-19T04:43:42;6.13;;;5.53;;
2438;SDS011;14509;47.992;7.848;2023-04-19T04:45:48;6.67;;;5.50;;
2438;SDS011;14509;47.992;7.848;2023-04-19T04:47:55;6.33;;;4.53;;
2438;SDS011;14509;47.992;7.848;2023-04-19T04:49:57;6.80;;;4.80;;
2438;SDS011;14509;47.992;7.848;2023-04-19T04:52:00;6.47;;;4.83;;
2438;SDS011;14509;47.992;7.848;2023-04-19T04:54:06;5.80;;;4.87;;
2438;SDS011;14509;47.992;7.848;2023-04-19T04:56:08;9.67;;;5.13;;
2438;SDS011;14509;47.992;7.848;2023-04-19T04:58:10;6.43;;;4.83;;
2438;SDS011;14509;47.992;7.848;2023-04-19T05:00:29;6.07;;;4.60;;
2438;SDS011;14509;47.992;7.848;2023-04-19T05:02:38;5.57;;;4.20;;
2438;SDS011;14509;47.992;7.848;2023-04-19T05:04:40;5.10;;;4.40;;
2438;SDS011;14509;47.992;7.848;2023-04-19T05:06:43;7.17;;;5.63;;
2438;SDS011;14509;47.992;7.848;2023-04-19T05:08:52;6.37;;;5.20;;
2438;SDS011;14509;47.992;7.848;2023-04-19T05:11:03;7.70;;;5.27;;
2438;SDS011;14509;47.992;7.848;2023-04-19T05:13:06;9.33;;;5.47;;
2438;SDS011;14509;47.992;7.848;2023-04-19T05:15:08;5.83;;;4.57;;
2438;SDS011;14509;47.992;7.848;2023-04-19T05:17:13;6.00;;;4.03;;
2438;SDS011;14509;47.992;7.848;2023-04-19T05:19:15;6.00;;;4.47;;
2438;SDS011;14509;47.992;7.848;2023-04-19T05:21:24;5.63;;;4.07;;
2438;SDS011;14509;47.992;7.848;2023-04-19T05:23:26;6.23;;;4.73;;
2438;SDS011;14509;47.992;7.848;2023-04-19T05:25:28;4.83;;;3.93;;
2438;SDS011;14509;47.992;7.848;2023-04-19T05:27:30;7.63;;;5.20;;
2438;SDS011;14509;47.992;7.848;2023-04-19T05:29:32;8.27;;;5.00;;
2438;SDS011;14509;47.992;7.848;2023-04-19T05:31:34;6.57;;;4.90;;
2438;SDS011;14509;47.992;7.848;2023-04-19T05:33:51;8.07;;;5.43;;
2438;SDS011;14509;47.992;7.848;2023-04-19T05:35:53;6.27;;;4.10;;
2438;SDS011;14509;47.992;7.848;2023-04-19T05:37:55;7.50;;;4.47;;
2438;SDS011;14509;47.992;7.848;2023-04-19T05:39:58;6.73;;;5.23;;
2438;SDS011;14509;47.992;7.848;2023-04-19T05:42:00;7.00;;;5.20;;
2438;SDS011;14509;47.992;7.848;2023-04-19T05:44:02;4.87;;;4.30;;
2438;SDS011;14509;47.992;7.848;2023-04-19T05:46:04;5.63;;;4.27;;
2438;SDS011;14509;47.992;7.848;2023-04-19T05:48:06;7.03;;;4.90;;
2438;SDS011;14509;47.992;7.848;2023-04-19T05:50:13;5.10;;;3.97;;
2438;SDS011;14509;47.992;7.848;2023-04-19T05:52:22;7.23;;;5.50;;
2438;SDS011;14509;47.992;7.848;2023-04-19T05:54:28;8.57;;;4.83;;
2438;SDS011;14509;47.992;7.848;2023-04-19T05:56:33;6.13;;;5.43;;
2438;SDS011;14509;47.992;7.848;2023-04-19T05:58:36;8.20;;;6.00;;
2438;SDS011;14509;47.992;7.848;2023-04-19T06:00:38;6.43;;;5.03;;
2438;SDS011;14509;47.992;7.848;2023-04-19T06:02:45;5.83;;;5.23;;
2438;SDS011;14509;47.992;7.848;2023-04-19T06:04:48;5.47;;;4.97;;
2438;SDS011;14509;47.992;7.848;2023-04-19T06:06:52;5.93;;;4.87;;
2438;SDS011;14509;47.992;7.848;2023-04-19T06:08:54;5.57;;;4.97;;
2438;SDS011;14509;47.992;7.848;2023-04-19T06:10:56;4.80;;;4.33;;
2438;SDS011;14509;47.992;7.848;2023-04-19T06:12:58;7.23;;;5.20;;
2438;SDS011;14509;47.992;7.848;2023-04-19T06:15:00;5.73;;;4.80;;
2438;SDS011;14509;47.992;7.848;2023-04-19T06:17:03;7.93;;;5.13;;
2438;SDS011;14509;47.992;7.848;2023-04-19T06:19:05;5.40;;;4.37;;
2438;SDS011;14509;47.992;7.848;2023-04-19T06:21:08;6.17;;;4.87;;
2438;SDS011;14509;47.992;7.848;2023-04-19T06:23:11;5.90;;;5.00;;
2438;SDS011;14509;47.992;7.848;2023-04-19T06:25:13;6.33;;;5.23;;
2438;SDS011;14509;47.992;7.848;2023-04-19T06:27:15;8.20;;;6.37;;
2438;SDS011;14509;47.992;7.848;2023-04-19T06:29:17;7.18;;;6.07;;
2438;SDS011;14509;47.992;7.848;2023-04-19T06:31:22;7.77;;;6.97;;
2438;SDS011;14509;47.992;7.848;2023-04-19T06:33:25;7.20;;;6.50;;
2438;SDS011;14509;47.992;7.848;2023-04-19T06:35:27;8.20;;;6.60;;
2438;SDS011;14509;47.992;7.848;2023-04-19T06:37:29;8.73;;;6.37;;
2438;SDS011;14509;47.992;7.848;2023-04-19T06:39:32;9.70;;;6.47;;
2438;SDS011;14509;47.992;7.848;2023-04-19T06:41:34;7.70;;;6.40;;
2438;SDS011;14509;47.992;7.848;2023-04-19T06:43:36;9.10;;;6.43;;
2438;SDS011;14509;47.992;7.848;2023-04-19T06:45:40;9.00;;;8.00;;
2438;SDS011;14509;47.992;7.848;2023-04-19T06:47:42;10.17;;;7.20;;
2438;SDS011;14509;47.992;7.848;2023-04-19T06:49:44;7.90;;;7.00;;
2438;SDS011;14509;47.992;7.848;2023-04-19T06:51:46;9.70;;;6.77;;
2438;SDS011;14509;47.992;7.848;2023-04-19T06:53:48;10.47;;;7.83;;
2438;SDS011;14509;47.992;7.848;2023-04-19T06:55:57;9.13;;;6.90;;
2438;SDS011;14509;47.992;7.848;2023-04-19T06:58:00;9.37;;;6.50;;
2438;SDS011;14509;47.992;7.848;2023-04-19T07:00:02;10.03;;;7.40;;
2438;SDS011;14509;47.992;7.848;2023-04-19T07:02:06;11.20;;;7.53;;
2438;SDS011;14509;47.992;7.848;2023-04-19T07:04:08;9.37;;;7.00;;
2438;SDS011;14509;47.992;7.848;2023-04-19T07:06:11;10.40;;;7.07;;
2438;SDS011;14509;47.992;7.848;2023-04-19T07:08:14;6.73;;;6.00;;
2438;SDS011;14509;47.992;7.848;2023-04-19T07:10:16;10.03;;;6.37;;
2438;SDS011;14509;47.992;7.848;2023-04-19T07:12:20;21.70;;;7.53;;
2438;SDS011;14509;47.992;7.848;2023-04-19T07:14:22;8.93;;;7.50;;
2438;SDS011;14509;47.992;7.848;2023-04-19T07:16:25;14.30;;;7.20;;
2438;SDS011;14509;47.992;7.848;2023-04-19T07:18:27;9.10;;;6.30;;
2438;SDS011;14509;47.992;7.848;2023-04-19T07:20:32;11.03;;;7.47;;
2438;SDS011;14509;47.992;7.848;2023-04-19T07:22:57;10.50;;;7.93;;
2438;SDS011;14509;47.992;7.848;2023-04-19T07:24:59;8.90;;;7.47;;
2438;SDS011;14509;47.992;7.848;2023-04-19T07:27:01;12.20;;;7.87;;
2438;SDS011;14509;47.992;7.848;2023-04-19T07:29:04;9.10;;;7.03;;
2438;SDS011;14509;47.992;7.848;2023-04-19T07:31:06;12.70;;;7.97;;
2438;SDS011;14509;47.992;7.848;2023-04-19T07:33:08;9.90;;;7.83;;
2438;SDS011;14509;47.992;7.848;2023-04-19T07:35:10;8.77;;;7.77;;
2438;SDS011;14509;47.992;7.848;2023-04-19T07:37:12;13.00;;;8.97;;
2438;SDS011;14509;47.992;7.848;2023-04-19T07:39:14;10.70;;;7.47;;
2438;SDS011;14509;47.992;7.848;2023-04-19T07:41:16;12.43;;;9.13;;
2438;SDS011;14509;47.992;7.848;2023-04-19T07:43:18;11.83;;;7.43;;
2438;SDS011;14509;47.992;7.848;2023-04-19T07:45:22;8.60;;;7.10;;
2438;SDS011;14509;47.992;7.848;2023-04-19T07:47:24;11.87;;;7.67;;
2438;SDS011;14509;47.992;7.848;2023-04-19T07:49:26;10.20;;;7.87;;
2438;SDS011;14509;47.992;7.848;2023-04-19T07:51:33;10.07;;;7.47;;
2438;SDS011;14509;47.992;7.848;2023-04-19T07:53:35;10.57;;;7.67;;
2438;SDS011;14509;47.992;7.848;2023-04-19T07:55:38;10.30;;;7.60;;
2438;SDS011;14509;47.992;7.848;2023-04-19T07:57:41;11.83;;;8.40;;
2438;SDS011;14509;47.992;7.848;2023-04-19T07:59:47;11.03;;;7.87;;
2438;SDS011;14509;47.992;7.848;2023-04-19T08:01:51;10.70;;;7.67;;
2438;SDS011;14509;47.992;7.848;2023-04-19T08:03:54;10.77;;;8.00;;
2438;SDS011;14509;47.992;7.848;2023-04-19T08:05:56;11.00;;;8.90;;
2438;SDS011;14509;47.992;7.848;2023-04-19T08:08:04;9.10;;;7.10;;
2438;SDS011;14509;47.992;7.848;2023-04-19T08:10:07;9.67;;;8.60;;
2438;SDS011;14509;47.992;7.848;2023-04-19T08:12:10;9.57;;;7.73;;
2438;SDS011;14509;47.992;7.848;2023-04-19T08:14:13;8.30;;;7.50;;
2438;SDS011;14509;47.992;7.848;2023-04-19T08:16:16;8.30;;;7.50;;
2438;SDS011;14509;47.992;7.848;2023-04-19T08:18:20;9.93;;;8.70;;
2438;SDS011;14509;47.992;7.848;2023-04-19T08:20:22;9.00;;;7.13;;
2438;SDS011;14509;47.992;7.848;2023-04-19T08:22:26;8.60;;;7.80;;
2438;SDS011;14509;47.992;7.848;2023-04-19T08:24:28;10.17;;;8.27;;
2438;SDS011;14509;47.992;7.848;2023-04-19T08:26:30;10.83;;;7.97;;
2438;SDS011;14509;47.992;7.848;2023-04-19T08:28:32;9.87;;;8.40;;
2438;SDS011;14509;47.992;7.848;2023-04-19T08:30:35;9.77;;;7.27;;
2438;SDS011;14509;47.992;7.848;2023-04-19T08:32:37;8.87;;;7.30;;
2438;SDS011;14509;47.992;7.848;2023-04-19T08:34:41;12.07;;;8.80;;
2438;SDS011;14509;47.992;7.848;2023-04-19T08:36:43;10.37;;;7.77;;
2438;SDS011;14509;47.992;7.848;2023-04-19T08:38:45;10.00;;;8.40;;
2438;SDS011;14509;47.992;7.848;2023-04-19T08:40:50;13.57;;;8.20;;
2438;SDS011;14509;47.992;7.848;2023-04-19T08:42:54;8.10;;;7.30;;
2438;SDS011;14509;47.992;7.848;2023-04-19T08:44:57;13.13;;;7.73;;
2438;SDS011;14509;47.992;7.848;2023-04-19T08:47:04;8.73;;;7.83;;
2438;SDS011;14509;47.992;7.848;2023-04-19T08:49:07;9.70;;;8.30;;
2438;SDS011;14509;47.992;7.848;2023-04-19T08:51:13;11.10;;;8.63;;
2438;SDS011;14509;47.992;7.848;2023-04-19T08:53:19;11.03;;;7.90;;
2438;SDS011;14509;47.992;7.848;2023-04-19T08:55:24;8.17;;;6.60;;
2438;SDS011;14509;47.992;7.848;2023-04-19T08:57:28;12.23;;;8.90;;
2438;SDS011;14509;47.992;7.848;2023-04-19T08:59:31;12.50;;;8.07;;
2438;SDS011;14509;47.992;7.848;2023-04-19T09:01:39;9.63;;;6.77;;
2438;SDS011;14509;47.992;7.848;2023-04-19T09:03:42;7.63;;;6.70;;
2438;SDS011;14509;47.992;7.848;2023-04-19T12:15:48;12.63;;;7.63;;
2438;SDS011;14509;47.992;7.848;2023-04-19T12:17:56;9.90;;;7.97;;
2438;SDS011;14509;47.992;7.848;2023-04-19T12:20:00;9.40;;;8.10;;
2438;SDS011;14509;47.992;7.848;2023-04-19T12:22:13;9.80;;;7.43;;
2438;SDS011;14509;47.992;7.848;2023-04-19T12:24:16;8.67;;;6.90;;
2438;SDS011;14509;47.992;7.848;2023-04-19T12:26:18;9.17;;;7.03;;
2438;SDS011;14509;47.992;7.848;2023-04-19T12:28:21;9.90;;;7.57;;
2438;SDS011;14509;47.992;7.848;2023-04-19T12:30:24;10.07;;;6.90;;
2438;SDS011;14509;47.992;7.848;2023-04-19T12:32:26;8.73;;;6.70;;
2438;SDS011;14509;47.992;7.848;2023-04-19T12:34:28;7.33;;;6.47;;
2438;SDS011;14509;47.992;7.848;2023-04-19T12:36:30;7.20;;;6.50;;
2438;SDS011;14509;47.992;7.848;2023-04-19T12:38:32;7.90;;;6.87;;
2438;SDS011;14509;47.992;7.848;2023-04-19T12:40:35;9.00;;;7.90;;
2438;SDS011;14509;47.992;7.848;2023-04-19T12:42:37;9.00;;;7.90;;
2438;SDS011;14509;47.992;7.848;2023-04-19T12:44:39;9.67;;;7.53;;
2438;SDS011;14509;47.992;7.848;2023-04-19T12:46:42;10.17;;;7.50;;
2438;SDS011;14509;47.992;7.848;2023-04-19T12:48:50;8.47;;;7.33;;
2438;SDS011;14509;47.992;7.848;2023-04-19T12:50:52;7.53;;;6.83;;
2438;SDS011;14509;47.992;7.848;2023-04-19T12:52:54;8.70;;;6.30;;
2438;SDS011;14509;47.992;7.848;2023-04-19T12:54:56;11.10;;;8.40;;
2438;SDS011;14509;47.992;7.848;2023-04-19T12:56:58;10.00;;;7.30;;
2438;SDS011;14509;47.992;7.848;2023-04-19T12:59:00;12.80;;;7.77;;
2438;SDS011;14509;47.992;7.848;2023-04-19T13:01:02;12.03;;;7.37;;
2438;SDS011;14509;47.992;7.848;2023-04-19T13:03:06;9.40;;;6.20;;
2438;SDS011;14509;47.992;7.848;2023-04-19T13:05:08;7.87;;;6.50;;
2438;SDS011;14509;47.992;7.848;2023-04-19T13:07:12;11.03;;;6.17;;
2438;SDS011;14509;47.992;7.848;2023-04-19T13:09:13;7.40;;;6.60;;
2438;SDS011;14509;47.992;7.848;2023-04-19T13:11:15;7.10;;;6.50;;
2438;SDS011;14509;47.992;7.848;2023-04-19T13:13:22;7.37;;;6.13;;
2438;SDS011;14509;47.992;7.848;2023-04-19T13:15:24;7.27;;;6.17;;
2438;SDS011;14509;47.992;7.848;2023-04-19T13:17:27;8.43;;;6.27;;
2438;SDS011;14509;47.992;7.848;2023-04-19T13:19:31;7.80;;;6.23;;
2438;SDS011;14509;47.992;7.848;2023-04-19T13:21:33;6.43;;;5.83;;
2438;SDS011;14509;47.992;7.848;2023-04-19T13:23:35;9.67;;;5.93;;
2438;SDS011;14509;47.992;7.848;2023-04-19T13:25:37;7.30;;;6.10;;
2438;SDS011;14509;47.992;7.848;2023-04-19T13:27:39;7.10;;;5.87;;
2438;SDS011;14509;47.992;7.848;2023-04-19T13:29:40;6.43;;;5.80;;
2438;SDS011;14509;47.992;7.848;2023-04-19T13:31:42;7.73;;;6.60;;
2438;SDS011;14509;47.992;7.848;2023-04-19T13:33:46;6.23;;;5.30;;
2438;SDS011;14509;47.992;7.848;2023-04-19T13:35:49;7.50;;;6.40;;
2438;SDS011;14509;47.992;7.848;2023-04-19T13:37:51;8.27;;;5.47;;
2438;SDS011;14509;47.992;7.848;2023-04-19T13:39:55;6.53;;;5.93;;
2438;SDS011;14509;47.992;7.848;2023-04-19T13:41:57;10.00;;;6.53;;
2438;SDS011;14509;47.992;7.848;2023-04-19T13:44:01;7.33;;;5.50;;
2438;SDS011;14509;47.992;7.848;2023-04-19T13:46:03;7.63;;;5.63;;
2438;SDS011;14509;47.992;7.848;2023-04-19T13:48:05;7.70;;;5.60;;
2438;SDS011;14509;47.992;7.848;2023-04-19T13:50:07;6.53;;;5.20;;
2438;SDS011;14509;47.992;7.848;2023-04-19T13:52:11;7.27;;;6.27;;
2438;SDS011;14509;47.992;7.848;2023-04-19T13:54:13;6.53;;;5.53;;
2438;SDS011;14509;47.992;7.848;2023-04-19T13:56:16;6.17;;;5.40;;
2438;SDS011;14509;47.992;7.848;2023-04-19T13:58:18;7.13;;;6.00;;
2438;SDS011;14509;47.992;7.848;2023-04-19T14:00:20;6.70;;;6.10;;
2438;SDS011;14509;47.992;7.848;2023-04-19T14:02:22;5.63;;;5.03;;
2438;SDS011;14509;47.992;7.848;2023-04-19T14:04:24;8.40;;;6.57;;
2438;SDS011;14509;47.992;7.848;2023-04-19T14:06:26;11.53;;;7.27;;
2438;SDS011;14509;47.992;7.848;2023-04-19T14:08:29;8.93;;;7.50;;
2438;SDS011;14509;47.992;7.848;2023-04-19T14:10:32;7.13;;;5.63;;
2438;SDS011;14509;47.992;7.848;2023-04-19T14:12:35;8.13;;;7.00;;
2438;SDS011;14509;47.992;7.848;2023-04-19T14:14:37;8.70;;;6.30;;
2438;SDS011;14509;47.992;7.848;2023-04-19T14:16:39;9.33;;;5.70;;
2438;SDS011;14509;47.992;7.848;2023-04-19T14:18:41;6.83;;;5.47;;
2438;SDS011;14509;47.992;7.848;2023-04-19T14:20:43;7.37;;;6.30;;
2438;SDS011;14509;47.992;7.848;2023-04-19T14:22:45;7.33;;;6.47;;
2438;SDS011;14509;47.992;7.848;2023-04-19T14:24:48;8.27;;;5.87;;
2438;SDS011;14509;47.992;7.848;2023-04-19T14:26:51;7.17;;;5.53;;
2438;SDS011;14509;47.992;7.848;2023-04-19T14:28:52;7.90;;;6.40;;
2438;SDS011;14509;47.992;7.848;2023-04-19T14:30:54;10.87;;;7.00;;
2438;SDS011;14509;47.992;7.848;2023-04-19T14:32:56;7.27;;;6.17;;
2438;SDS011;14509;47.992;7.848;2023-04-19T14:34:58;9.10;;;6.70;;
2438;SDS011;14509;47.992;7.848;2023-04-19T14:37:01;6.03;;;5.50;;
2438;SDS011;14509;47.992;7.848;2023-04-19T14:39:02;9.77;;;6.30;;
2438;SDS011;14509;47.992;7.848;2023-04-19T14:41:06;6.60;;;5.70;;
2438;SDS011;14509;47.992;7.848;2023-04-19T14:43:10;7.50;;;4.80;;
2438;SDS011;14509;47.992;7.848;2023-04-19T14:45:14;8.90;;;6.13;;
2438;SDS011;14509;47.992;7.848;2023-04-19T14:47:17;5.77;;;5.20;;
2438;SDS011;14509;47.992;7.848;2023-04-19T14:49:19;7.10;;;6.03;;
2438;SDS011;14509;47.992;7.848;2023-04-19T14:51:21;6.10;;;5.50;;
2438;SDS011;14509;47.992;7.848;2023-04-19T14:53:23;6.20;;;5.30;;
2438;SDS011;14509;47.992;7.848;2023-04-19T14:55:25;5.67;;;5.10;;
2438;SDS011;14509;47.992;7.848;2023-04-19T14:57:29;7.63;;;5.73;;
2438;SDS011;14509;47.992;7.848;2023-04-19T14:59:31;8.20;;;5.60;;
2438;SDS011;14509;47.992;7.848;2023-04-19T15:01:33;7.73;;;6.20;;
2438;SDS011;14509;47.992;7.848;2023-04-19T15:03:36;6.37;;;5.63;;
2438;SDS011;14509;47.992;7.848;2023-04-19T15:05:38;7.70;;;6.53;;
2438;SDS011;14509;47.992;7.848;2023-04-19T15:07:39;7.83;;;6.67;;
2438;SDS011;14509;47.992;7.848;2023-04-19T15:09:41;5.80;;;5.30;;
2438;SDS011;14509;47.992;7.848;2023-04-19T15:11:43;7.47;;;6.50;;
2438;SDS011;14509;47.992;7.848;2023-04-19T15:13:47;8.53;;;6.30;;
2438;SDS011;14509;47.992;7.848;2023-04-19T15:15:49;7.30;;;5.90;;
2438;SDS011;14509;47.992;7.848;2023-04-19T15:17:51;6.00;;;5.40;;
2438;SDS011;14509;47.992;7.848;2023-04-19T15:19:53;4.80;;;4.27;;
2438;SDS011;14509;47.992;7.848;2023-04-19T15:21:55;6.57;;;5.50;;
2438;SDS011;14509;47.992;7.848;2023-04-19T15:23:57;6.50;;;5.57;;
2438;SDS011;14509;47.992;7.848;2023-04-19T15:25:59;6.00;;;5.40;;
2438;SDS011;14509;47.992;7.848;2023-04-19T15:28:01;12.93;;;5.10;;
2438;SDS011;14509;47.992;7.848;2023-04-19T15:30:05;5.50;;;5.00;;
2438;SDS011;14509;47.992;7.848;2023-04-19T15:32:07;6.07;;;4.70;;
2438;SDS011;14509;47.992;7.848;2023-04-19T15:34:09;6.67;;;5.80;;
2438;SDS011;14509;47.992;7.848;2023-04-19T18:22:59;5.77;;;5.10;;
2438;SDS011;14509;47.992;7.848;2023-04-19T18:25:01;6.83;;;6.10;;
2438;SDS011;14509;47.992;7.848;2023-04-19T18:27:04;7.27;;;6.40;;
2438;SDS011;14509;47.992;7.848;2023-04-19T18:29:06;9.20;;;6.10;;
2438;SDS011;14509;47.992;7.848;2023-04-19T18:31:08;8.23;;;5.87;;
2438;SDS011;14509;47.992;7.848;2023-04-19T18:33:10;7.40;;;5.90;;
2438;SDS011;14509;47.992;7.848;2023-04-19T18:35:12;7.73;;;5.70;;